sensor_id;sensor_type;location;lat;lon;timestamp;temperature;humidity
913;DHT22;443;51.448;7.028;2022-11-15T00:01:07;15.80;75.80
913;DHT22;443;51.448;7.028;2022-11-15T00:03:34;15.80;75.80
913;DHT22;443;51.448;7.028;2022-11-15T00:06:03;15.80;75.80
913;DHT22;443;51.448;7.028;2022-11-15T00:08:31;15.80;75.80
913;DHT22;443;51.448;7.028;2022-11-15T00:10:59;15.80;75.50
913;DHT22;443;51.448;7.028;2022-11-15T00:13:26;15.80;75.80
913;DHT22;443;51.448;7.028;2022-11-15T00:15:56;15.80;75.70
913;DHT22;443;51.448;7.028;2022-11-15T00:18:23;15.80;75.80
913;DHT22;443;51.448;7.028;2022-11-15T00:20:50;15.80;75.80
913;DHT22;443;51.448;7.028;2022-11-15T00:23:18;15.80;75.90
913;DHT22;443;51.448;7.028;2022-11-15T00:25:45;15.80;76.00
913;DHT22;443;51.448;7.028;2022-11-15T00:28:12;15.80;75.60
913;DHT22;443;51.448;7.028;2022-11-15T00:30:38;15.80;75.60
913;DHT22;443;51.448;7.028;2022-11-15T00:33:06;15.80;75.50
913;DHT22;443;51.448;7.028;2022-11-15T00:35:33;15.80;76.00
913;DHT22;443;51.448;7.028;2022-11-15T00:38:00;15.80;76.00
913;DHT22;443;51.448;7.028;2022-11-15T00:40:29;15.80;75.90
913;DHT22;443;51.448;7.028;2022-11-15T00:42:56;15.80;76.00
913;DHT22;443;51.448;7.028;2022-11-15T00:45:23;15.80;75.80
913;DHT22;443;51.448;7.028;2022-11-15T00:47:50;15.80;75.90
913;DHT22;443;51.448;7.028;2022-11-15T00:50:17;15.80;75.80
913;DHT22;443;51.448;7.028;2022-11-15T00:52:44;15.80;75.80
913;DHT22;443;51.448;7.028;2022-11-15T00:55:13;15.80;75.90
913;DHT22;443;51.448;7.028;2022-11-15T00:57:43;15.80;75.80
913;DHT22;443;51.448;7.028;2022-11-15T01:00:10;15.80;75.80
913;DHT22;443;51.448;7.028;2022-11-15T01:02:37;15.90;75.90
913;DHT22;443;51.448;7.028;2022-11-15T01:05:05;15.80;75.70
913;DHT22;443;51.448;7.028;2022-11-15T01:07:32;15.80;75.90
913;DHT22;443;51.448;7.028;2022-11-15T01:09:58;15.90;76.00
913;DHT22;443;51.448;7.028;2022-11-15T01:12:25;15.90;75.90
913;DHT22;443;51.448;7.028;2022-11-15T01:14:53;15.90;75.90
913;DHT22;443;51.448;7.028;2022-11-15T01:17:20;15.80;75.80
913;DHT22;443;51.448;7.028;2022-11-15T01:19:47;15.80;75.70
913;DHT22;443;51.448;7.028;2022-11-15T01:22:14;15.80;75.80
913;DHT22;443;51.448;7.028;2022-11-15T01:24:40;15.80;75.80
913;DHT22;443;51.448;7.028;2022-11-15T01:27:08;15.80;75.90
913;DHT22;443;51.448;7.028;2022-11-15T01:29:35;15.80;76.10
913;DHT22;443;51.448;7.028;2022-11-15T01:32:03;15.80;76.00
913;DHT22;443;51.448;7.028;2022-11-15T01:34:30;15.80;76.00
913;DHT22;443;51.448;7.028;2022-11-15T01:36:57;15.80;75.70
913;DHT22;443;51.448;7.028;2022-11-15T01:39:24;15.70;75.70
913;DHT22;443;51.448;7.028;2022-11-15T01:41:51;15.80;76.30
913;DHT22;443;51.448;7.028;2022-11-15T01:44:40;15.80;76.20
913;DHT22;443;51.448;7.028;2022-11-15T01:47:12;15.80;76.20
913;DHT22;443;51.448;7.028;2022-11-15T01:49:46;15.80;76.30
913;DHT22;443;51.448;7.028;2022-11-15T01:52:18;15.80;76.20
913;DHT22;443;51.448;7.028;2022-11-15T01:54:46;15.80;76.10
913;DHT22;443;51.448;7.028;2022-11-15T01:57:13;15.80;76.10
913;DHT22;443;51.448;7.028;2022-11-15T01:59:42;15.80;76.00
913;DHT22;443;51.448;7.028;2022-11-15T02:02:11;15.80;76.00
913;DHT22;443;51.448;7.028;2022-11-15T02:04:41;15.80;76.00
913;DHT22;443;51.448;7.028;2022-11-15T02:07:09;15.80;76.00
913;DHT22;443;51.448;7.028;2022-11-15T02:09:37;15.80;76.10
913;DHT22;443;51.448;7.028;2022-11-15T02:12:05;15.80;76.10
913;DHT22;443;51.448;7.028;2022-11-15T02:14:34;15.80;76.10
913;DHT22;443;51.448;7.028;2022-11-15T02:17:11;15.90;76.20
913;DHT22;443;51.448;7.028;2022-11-15T02:22:56;15.80;76.00
913;DHT22;443;51.448;7.028;2022-11-15T02:25:38;15.80;76.00
913;DHT22;443;51.448;7.028;2022-11-15T02:28:21;15.80;76.10
913;DHT22;443;51.448;7.028;2022-11-15T02:30:59;15.80;76.20
913;DHT22;443;51.448;7.028;2022-11-15T02:33:35;15.80;76.10
913;DHT22;443;51.448;7.028;2022-11-15T02:36:09;15.80;76.10
913;DHT22;443;51.448;7.028;2022-11-15T02:38:41;15.80;76.00
913;DHT22;443;51.448;7.028;2022-11-15T02:41:16;15.80;76.10
913;DHT22;443;51.448;7.028;2022-11-15T02:43:48;15.80;76.10
913;DHT22;443;51.448;7.028;2022-11-15T02:46:32;15.90;76.30
913;DHT22;443;51.448;7.028;2022-11-15T02:49:17;15.80;76.80
913;DHT22;443;51.448;7.028;2022-11-15T02:51:46;15.80;76.10
913;DHT22;443;51.448;7.028;2022-11-15T02:54:17;15.90;76.10
913;DHT22;443;51.448;7.028;2022-11-15T02:56:46;15.80;76.00
913;DHT22;443;51.448;7.028;2022-11-15T02:59:32;15.80;76.20
913;DHT22;443;51.448;7.028;2022-11-15T03:02:14;15.80;76.10
913;DHT22;443;51.448;7.028;2022-11-15T03:04:44;15.80;76.10
913;DHT22;443;51.448;7.028;2022-11-15T03:07:19;15.80;76.10
913;DHT22;443;51.448;7.028;2022-11-15T03:09:52;15.80;76.20
913;DHT22;443;51.448;7.028;2022-11-15T03:12:25;15.80;76.20
913;DHT22;443;51.448;7.028;2022-11-15T03:14:57;15.90;76.30
913;DHT22;443;51.448;7.028;2022-11-15T03:17:30;15.80;76.20
913;DHT22;443;51.448;7.028;2022-11-15T03:20:02;15.80;76.20
913;DHT22;443;51.448;7.028;2022-11-15T03:22:34;15.80;76.20
913;DHT22;443;51.448;7.028;2022-11-15T03:25:05;15.80;76.30
913;DHT22;443;51.448;7.028;2022-11-15T03:27:37;15.80;76.20
913;DHT22;443;51.448;7.028;2022-11-15T03:30:06;15.80;76.30
913;DHT22;443;51.448;7.028;2022-11-15T03:32:38;15.80;76.30
913;DHT22;443;51.448;7.028;2022-11-15T03:35:08;15.80;76.30
913;DHT22;443;51.448;7.028;2022-11-15T03:37:40;15.80;76.20
913;DHT22;443;51.448;7.028;2022-11-15T03:40:08;15.80;76.20
913;DHT22;443;51.448;7.028;2022-11-15T03:42:39;15.80;76.20
913;DHT22;443;51.448;7.028;2022-11-15T03:45:14;15.80;76.30
913;DHT22;443;51.448;7.028;2022-11-15T03:47:47;15.80;76.20
913;DHT22;443;51.448;7.028;2022-11-15T03:50:18;15.90;76.40
913;DHT22;443;51.448;7.028;2022-11-15T03:52:47;15.80;76.30
913;DHT22;443;51.448;7.028;2022-11-15T03:55:17;15.80;76.30
913;DHT22;443;51.448;7.028;2022-11-15T03:57:44;15.80;76.30
913;DHT22;443;51.448;7.028;2022-11-15T04:00:11;15.80;76.40
913;DHT22;443;51.448;7.028;2022-11-15T04:02:38;15.80;76.30
913;DHT22;443;51.448;7.028;2022-11-15T04:05:07;15.80;76.40
913;DHT22;443;51.448;7.028;2022-11-15T04:07:34;15.80;76.40
913;DHT22;443;51.448;7.028;2022-11-15T04:10:01;15.80;76.40
913;DHT22;443;51.448;7.028;2022-11-15T04:12:31;15.80;76.30
913;DHT22;443;51.448;7.028;2022-11-15T04:14:59;15.80;76.30
913;DHT22;443;51.448;7.028;2022-11-15T04:17:37;15.90;76.40
913;DHT22;443;51.448;7.028;2022-11-15T04:20:09;15.80;76.50
913;DHT22;443;51.448;7.028;2022-11-15T04:22:54;15.80;76.40
913;DHT22;443;51.448;7.028;2022-11-15T04:25:39;15.80;76.30
913;DHT22;443;51.448;7.028;2022-11-15T04:28:06;15.80;76.40
913;DHT22;443;51.448;7.028;2022-11-15T04:30:33;15.80;76.30
913;DHT22;443;51.448;7.028;2022-11-15T04:32:59;15.80;76.40
913;DHT22;443;51.448;7.028;2022-11-15T04:35:28;15.90;76.40
913;DHT22;443;51.448;7.028;2022-11-15T04:37:55;15.80;76.30
913;DHT22;443;51.448;7.028;2022-11-15T04:40:21;15.90;76.40
913;DHT22;443;51.448;7.028;2022-11-15T04:42:48;15.80;76.40
913;DHT22;443;51.448;7.028;2022-11-15T04:45:15;15.80;76.40
913;DHT22;443;51.448;7.028;2022-11-15T04:47:43;15.80;76.20
913;DHT22;443;51.448;7.028;2022-11-15T04:50:10;15.80;76.40
913;DHT22;443;51.448;7.028;2022-11-15T04:52:40;15.80;76.40
913;DHT22;443;51.448;7.028;2022-11-15T04:55:08;15.80;76.50
913;DHT22;443;51.448;7.028;2022-11-15T04:57:34;15.90;76.40
913;DHT22;443;51.448;7.028;2022-11-15T05:00:02;15.80;76.40
913;DHT22;443;51.448;7.028;2022-11-15T05:02:29;15.80;76.40
913;DHT22;443;51.448;7.028;2022-11-15T05:05:16;15.80;76.40
913;DHT22;443;51.448;7.028;2022-11-15T05:07:43;15.80;76.50
913;DHT22;443;51.448;7.028;2022-11-15T05:10:10;15.80;76.60
913;DHT22;443;51.448;7.028;2022-11-15T05:12:37;15.80;76.50
913;DHT22;443;51.448;7.028;2022-11-15T05:15:05;15.80;76.50
913;DHT22;443;51.448;7.028;2022-11-15T05:17:32;15.80;76.60
913;DHT22;443;51.448;7.028;2022-11-15T05:19:58;15.80;76.60
913;DHT22;443;51.448;7.028;2022-11-15T05:22:26;15.80;76.70
913;DHT22;443;51.448;7.028;2022-11-15T05:24:54;15.80;76.70
913;DHT22;443;51.448;7.028;2022-11-15T05:27:21;15.80;76.70
913;DHT22;443;51.448;7.028;2022-11-15T05:29:48;15.80;77.10
913;DHT22;443;51.448;7.028;2022-11-15T05:32:15;15.80;76.70
913;DHT22;443;51.448;7.028;2022-11-15T05:34:43;15.80;76.90
913;DHT22;443;51.448;7.028;2022-11-15T05:37:10;15.80;76.80
913;DHT22;443;51.448;7.028;2022-11-15T05:39:37;15.80;77.30
913;DHT22;443;51.448;7.028;2022-11-15T05:42:08;15.80;77.10
913;DHT22;443;51.448;7.028;2022-11-15T05:44:36;15.80;77.20
913;DHT22;443;51.448;7.028;2022-11-15T05:47:07;15.80;77.60
913;DHT22;443;51.448;7.028;2022-11-15T05:49:37;15.80;77.10
913;DHT22;443;51.448;7.028;2022-11-15T05:52:07;15.80;77.00
913;DHT22;443;51.448;7.028;2022-11-15T05:54:36;15.90;77.20
913;DHT22;443;51.448;7.028;2022-11-15T05:57:05;15.90;77.00
913;DHT22;443;51.448;7.028;2022-11-15T05:59:34;15.90;77.00
913;DHT22;443;51.448;7.028;2022-11-15T06:02:01;15.90;77.30
913;DHT22;443;51.448;7.028;2022-11-15T06:04:28;15.90;77.00
913;DHT22;443;51.448;7.028;2022-11-15T06:06:55;15.90;77.10
913;DHT22;443;51.448;7.028;2022-11-15T06:09:21;15.90;77.00
913;DHT22;443;51.448;7.028;2022-11-15T06:11:48;15.90;77.00
913;DHT22;443;51.448;7.028;2022-11-15T06:14:15;15.90;76.80
913;DHT22;443;51.448;7.028;2022-11-15T06:16:43;15.90;76.90
913;DHT22;443;51.448;7.028;2022-11-15T06:19:10;16.00;76.90
913;DHT22;443;51.448;7.028;2022-11-15T06:21:37;16.00;76.80
913;DHT22;443;51.448;7.028;2022-11-15T06:24:05;16.00;76.80
913;DHT22;443;51.448;7.028;2022-11-15T06:26:32;16.00;76.70
913;DHT22;443;51.448;7.028;2022-11-15T06:28:59;16.00;76.90
913;DHT22;443;51.448;7.028;2022-11-15T06:31:25;16.00;76.80
913;DHT22;443;51.448;7.028;2022-11-15T06:33:54;16.00;76.70
913;DHT22;443;51.448;7.028;2022-11-15T06:36:20;16.00;76.70
913;DHT22;443;51.448;7.028;2022-11-15T06:38:47;16.00;76.80
913;DHT22;443;51.448;7.028;2022-11-15T06:41:14;16.00;76.70
913;DHT22;443;51.448;7.028;2022-11-15T06:43:42;16.00;76.70
913;DHT22;443;51.448;7.028;2022-11-15T06:46:09;16.00;76.80
913;DHT22;443;51.448;7.028;2022-11-15T06:48:36;16.00;76.80
913;DHT22;443;51.448;7.028;2022-11-15T06:51:04;16.00;76.90
913;DHT22;443;51.448;7.028;2022-11-15T06:53:31;16.00;76.80
913;DHT22;443;51.448;7.028;2022-11-15T06:55:59;16.00;76.80
913;DHT22;443;51.448;7.028;2022-11-15T06:58:27;16.00;76.90
913;DHT22;443;51.448;7.028;2022-11-15T07:00:57;16.00;76.80
913;DHT22;443;51.448;7.028;2022-11-15T07:03:24;16.10;76.90
913;DHT22;443;51.448;7.028;2022-11-15T07:05:52;16.00;76.90
913;DHT22;443;51.448;7.028;2022-11-15T07:08:21;16.00;76.80
913;DHT22;443;51.448;7.028;2022-11-15T07:10:48;16.00;76.80
913;DHT22;443;51.448;7.028;2022-11-15T07:13:16;16.00;76.70
913;DHT22;443;51.448;7.028;2022-11-15T07:15:42;16.00;76.80
913;DHT22;443;51.448;7.028;2022-11-15T07:18:09;16.00;76.90
913;DHT22;443;51.448;7.028;2022-11-15T07:20:36;16.00;76.90
913;DHT22;443;51.448;7.028;2022-11-15T07:23:05;16.00;77.10
913;DHT22;443;51.448;7.028;2022-11-15T07:25:33;16.00;77.00
913;DHT22;443;51.448;7.028;2022-11-15T07:28:00;16.00;77.00
913;DHT22;443;51.448;7.028;2022-11-15T07:30:27;15.90;77.00
913;DHT22;443;51.448;7.028;2022-11-15T07:32:55;16.00;77.00
913;DHT22;443;51.448;7.028;2022-11-15T07:35:22;16.00;76.90
913;DHT22;443;51.448;7.028;2022-11-15T07:37:56;16.00;76.90
913;DHT22;443;51.448;7.028;2022-11-15T07:40:23;16.00;76.80
913;DHT22;443;51.448;7.028;2022-11-15T07:42:52;16.00;77.00
913;DHT22;443;51.448;7.028;2022-11-15T07:45:23;16.00;77.10
913;DHT22;443;51.448;7.028;2022-11-15T07:47:51;16.10;77.00
913;DHT22;443;51.448;7.028;2022-11-15T07:50:18;16.10;76.80
913;DHT22;443;51.448;7.028;2022-11-15T07:52:45;16.00;75.90
913;DHT22;443;51.448;7.028;2022-11-15T07:55:12;16.00;76.60
913;DHT22;443;51.448;7.028;2022-11-15T07:57:39;16.00;77.60
913;DHT22;443;51.448;7.028;2022-11-15T08:00:08;16.10;76.80
913;DHT22;443;51.448;7.028;2022-11-15T08:02:35;16.10;76.10
913;DHT22;443;51.448;7.028;2022-11-15T08:05:02;16.10;76.70
913;DHT22;443;51.448;7.028;2022-11-15T08:07:30;16.10;76.40
913;DHT22;443;51.448;7.028;2022-11-15T08:09:57;16.10;76.70
913;DHT22;443;51.448;7.028;2022-11-15T08:12:24;16.10;76.70
913;DHT22;443;51.448;7.028;2022-11-15T08:14:51;16.00;75.50
913;DHT22;443;51.448;7.028;2022-11-15T08:17:19;16.10;76.70
913;DHT22;443;51.448;7.028;2022-11-15T08:19:46;16.10;76.70
913;DHT22;443;51.448;7.028;2022-11-15T08:22:13;16.10;76.70
913;DHT22;443;51.448;7.028;2022-11-15T08:24:40;16.10;76.50
913;DHT22;443;51.448;7.028;2022-11-15T08:27:07;16.10;75.80
913;DHT22;443;51.448;7.028;2022-11-15T08:29:40;16.10;76.50
913;DHT22;443;51.448;7.028;2022-11-15T08:32:07;16.10;75.90
913;DHT22;443;51.448;7.028;2022-11-15T08:34:36;16.10;76.50
913;DHT22;443;51.448;7.028;2022-11-15T08:37:03;16.10;76.20
913;DHT22;443;51.448;7.028;2022-11-15T08:39:30;16.10;76.50
913;DHT22;443;51.448;7.028;2022-11-15T08:41:57;16.10;75.60
913;DHT22;443;51.448;7.028;2022-11-15T08:44:24;16.10;75.80
913;DHT22;443;51.448;7.028;2022-11-15T08:46:50;16.20;76.30
913;DHT22;443;51.448;7.028;2022-11-15T08:49:17;16.10;76.40
913;DHT22;443;51.448;7.028;2022-11-15T08:51:45;16.10;74.70
913;DHT22;443;51.448;7.028;2022-11-15T08:54:12;16.10;74.90
913;DHT22;443;51.448;7.028;2022-11-15T08:56:39;16.10;76.60
913;DHT22;443;51.448;7.028;2022-11-15T08:59:06;16.20;76.30
913;DHT22;443;51.448;7.028;2022-11-15T09:01:33;16.20;76.40
913;DHT22;443;51.448;7.028;2022-11-15T09:04:01;16.20;76.10
913;DHT22;443;51.448;7.028;2022-11-15T09:06:29;16.10;75.40
913;DHT22;443;51.448;7.028;2022-11-15T09:08:57;16.20;76.00
913;DHT22;443;51.448;7.028;2022-11-15T09:11:24;16.10;74.70
913;DHT22;443;51.448;7.028;2022-11-15T09:13:52;16.20;76.40
913;DHT22;443;51.448;7.028;2022-11-15T09:16:19;16.20;76.40
913;DHT22;443;51.448;7.028;2022-11-15T09:18:45;16.20;75.90
913;DHT22;443;51.448;7.028;2022-11-15T09:21:13;16.20;76.30
913;DHT22;443;51.448;7.028;2022-11-15T09:23:40;16.20;76.00
913;DHT22;443;51.448;7.028;2022-11-15T09:26:08;16.20;75.50
913;DHT22;443;51.448;7.028;2022-11-15T09:28:36;16.20;75.80
913;DHT22;443;51.448;7.028;2022-11-15T09:31:05;16.20;76.30
913;DHT22;443;51.448;7.028;2022-11-15T09:33:32;16.20;75.70
913;DHT22;443;51.448;7.028;2022-11-15T09:36:04;16.20;75.50
913;DHT22;443;51.448;7.028;2022-11-15T09:38:31;16.20;74.70
913;DHT22;443;51.448;7.028;2022-11-15T09:41:37;16.20;75.50
913;DHT22;443;51.448;7.028;2022-11-15T09:44:21;16.10;75.50
913;DHT22;443;51.448;7.028;2022-11-15T09:47:02;16.20;76.00
913;DHT22;443;51.448;7.028;2022-11-15T09:49:34;16.20;76.20
913;DHT22;443;51.448;7.028;2022-11-15T09:52:01;16.20;74.40
913;DHT22;443;51.448;7.028;2022-11-15T09:54:31;16.20;76.10
913;DHT22;443;51.448;7.028;2022-11-15T09:57:04;16.20;75.90
913;DHT22;443;51.448;7.028;2022-11-15T09:59:54;16.20;75.70
913;DHT22;443;51.448;7.028;2022-11-15T10:02:37;16.20;75.00
913;DHT22;443;51.448;7.028;2022-11-15T10:05:10;16.20;74.70
913;DHT22;443;51.448;7.028;2022-11-15T10:07:45;16.20;75.50
913;DHT22;443;51.448;7.028;2022-11-15T10:10:19;16.10;76.10
913;DHT22;443;51.448;7.028;2022-11-15T10:12:51;16.20;75.80
913;DHT22;443;51.448;7.028;2022-11-15T10:15:19;16.20;74.40
913;DHT22;443;51.448;7.028;2022-11-15T10:18:04;16.10;74.80
913;DHT22;443;51.448;7.028;2022-11-15T10:20:38;16.10;73.00
913;DHT22;443;51.448;7.028;2022-11-15T10:23:11;16.10;76.20
913;DHT22;443;51.448;7.028;2022-11-15T10:25:37;16.10;74.60
913;DHT22;443;51.448;7.028;2022-11-15T10:28:13;16.10;75.90
913;DHT22;443;51.448;7.028;2022-11-15T10:30:42;16.10;73.90
913;DHT22;443;51.448;7.028;2022-11-15T10:33:19;16.10;73.00
913;DHT22;443;51.448;7.028;2022-11-15T10:35:47;16.10;75.10
913;DHT22;443;51.448;7.028;2022-11-15T10:38:13;16.10;75.20
913;DHT22;443;51.448;7.028;2022-11-15T10:40:41;16.10;74.40
913;DHT22;443;51.448;7.028;2022-11-15T10:43:18;16.10;75.70
913;DHT22;443;51.448;7.028;2022-11-15T10:45:46;16.10;74.90
913;DHT22;443;51.448;7.028;2022-11-15T10:48:25;16.10;74.40
913;DHT22;443;51.448;7.028;2022-11-15T10:50:53;16.20;75.20
913;DHT22;443;51.448;7.028;2022-11-15T10:53:29;16.20;73.80
913;DHT22;443;51.448;7.028;2022-11-15T10:55:59;16.20;74.60
913;DHT22;443;51.448;7.028;2022-11-15T10:58:34;16.10;73.00
913;DHT22;443;51.448;7.028;2022-11-15T11:01:12;16.10;74.40
913;DHT22;443;51.448;7.028;2022-11-15T11:03:41;16.20;76.40
913;DHT22;443;51.448;7.028;2022-11-15T11:06:11;16.20;74.30
913;DHT22;443;51.448;7.028;2022-11-15T11:08:39;16.20;75.40
913;DHT22;443;51.448;7.028;2022-11-15T11:11:07;16.20;72.00
913;DHT22;443;51.448;7.028;2022-11-15T11:13:37;16.20;75.40
913;DHT22;443;51.448;7.028;2022-11-15T11:16:20;16.30;76.40
913;DHT22;443;51.448;7.028;2022-11-15T11:18:54;16.20;71.50
913;DHT22;443;51.448;7.028;2022-11-15T11:21:32;16.20;73.20
913;DHT22;443;51.448;7.028;2022-11-15T11:24:04;16.20;73.00
913;DHT22;443;51.448;7.028;2022-11-15T11:26:42;16.20;74.40
913;DHT22;443;51.448;7.028;2022-11-15T11:29:24;16.20;75.40
913;DHT22;443;51.448;7.028;2022-11-15T11:31:58;16.20;76.00
913;DHT22;443;51.448;7.028;2022-11-15T11:34:40;16.30;73.70
913;DHT22;443;51.448;7.028;2022-11-15T11:37:14;16.20;72.60
913;DHT22;443;51.448;7.028;2022-11-15T11:39:50;16.30;76.90
913;DHT22;443;51.448;7.028;2022-11-15T11:42:36;16.20;75.40
913;DHT22;443;51.448;7.028;2022-11-15T11:45:21;16.20;74.20
913;DHT22;443;51.448;7.028;2022-11-15T11:47:54;16.20;75.70
913;DHT22;443;51.448;7.028;2022-11-15T11:50:25;16.30;74.20
913;DHT22;443;51.448;7.028;2022-11-15T11:52:57;16.20;69.70
913;DHT22;443;51.448;7.028;2022-11-15T11:55:27;16.30;75.00
913;DHT22;443;51.448;7.028;2022-11-15T11:58:03;16.20;70.20
913;DHT22;443;51.448;7.028;2022-11-15T12:00:35;16.30;74.90
913;DHT22;443;51.448;7.028;2022-11-15T12:03:09;16.30;72.20
913;DHT22;443;51.448;7.028;2022-11-15T12:05:40;16.30;72.70
913;DHT22;443;51.448;7.028;2022-11-15T12:08:21;16.30;75.40
913;DHT22;443;51.448;7.028;2022-11-15T12:10:54;16.30;74.00
913;DHT22;443;51.448;7.028;2022-11-15T12:13:26;16.30;67.80
913;DHT22;443;51.448;7.028;2022-11-15T12:15:58;16.40;75.90
913;DHT22;443;51.448;7.028;2022-11-15T12:18:26;16.40;75.90
913;DHT22;443;51.448;7.028;2022-11-15T12:20:57;16.40;73.80
913;DHT22;443;51.448;7.028;2022-11-15T12:23:27;16.40;74.80
913;DHT22;443;51.448;7.028;2022-11-15T12:25:57;16.30;72.60
913;DHT22;443;51.448;7.028;2022-11-15T12:28:32;16.40;75.20
913;DHT22;443;51.448;7.028;2022-11-15T12:31:05;16.40;72.90
913;DHT22;443;51.448;7.028;2022-11-15T12:33:38;16.40;75.00
913;DHT22;443;51.448;7.028;2022-11-15T12:36:09;16.40;73.30
913;DHT22;443;51.448;7.028;2022-11-15T12:38:56;16.40;75.20
913;DHT22;443;51.448;7.028;2022-11-15T12:41:25;16.40;70.20
913;DHT22;443;51.448;7.028;2022-11-15T12:43:52;16.50;74.90
913;DHT22;443;51.448;7.028;2022-11-15T12:46:23;16.50;72.60
913;DHT22;443;51.448;7.028;2022-11-15T12:48:54;16.50;75.00
913;DHT22;443;51.448;7.028;2022-11-15T12:51:23;16.50;75.10
913;DHT22;443;51.448;7.028;2022-11-15T12:57:35;16.50;75.70
913;DHT22;443;51.448;7.028;2022-11-15T13:03:21;16.50;75.10
913;DHT22;443;51.448;7.028;2022-11-15T13:06:00;16.50;72.60
913;DHT22;443;51.448;7.028;2022-11-15T13:08:50;16.50;72.90
913;DHT22;443;51.448;7.028;2022-11-15T13:11:48;16.60;75.30
913;DHT22;443;51.448;7.028;2022-11-15T13:14:43;16.60;75.40
913;DHT22;443;51.448;7.028;2022-11-15T13:17:29;16.60;76.20
913;DHT22;443;51.448;7.028;2022-11-15T13:20:19;16.60;74.10
913;DHT22;443;51.448;7.028;2022-11-15T13:22:48;16.60;74.00
913;DHT22;443;51.448;7.028;2022-11-15T13:25:27;16.60;74.80
913;DHT22;443;51.448;7.028;2022-11-15T13:28:00;16.60;74.30
913;DHT22;443;51.448;7.028;2022-11-15T13:30:30;16.60;75.10
913;DHT22;443;51.448;7.028;2022-11-15T13:33:00;16.60;73.60
913;DHT22;443;51.448;7.028;2022-11-15T13:35:30;16.70;74.30
913;DHT22;443;51.448;7.028;2022-11-15T13:38:04;16.60;75.20
913;DHT22;443;51.448;7.028;2022-11-15T13:40:35;16.60;75.30
913;DHT22;443;51.448;7.028;2022-11-15T13:43:30;16.60;75.30
913;DHT22;443;51.448;7.028;2022-11-15T13:46:11;16.60;75.30
913;DHT22;443;51.448;7.028;2022-11-15T13:48:39;16.60;74.10
913;DHT22;443;51.448;7.028;2022-11-15T13:51:10;16.60;74.90
913;DHT22;443;51.448;7.028;2022-11-15T13:53:41;16.60;74.50
913;DHT22;443;51.448;7.028;2022-11-15T13:56:12;16.60;74.70
913;DHT22;443;51.448;7.028;2022-11-15T13:58:39;16.60;75.30
913;DHT22;443;51.448;7.028;2022-11-15T14:01:11;16.60;75.30
913;DHT22;443;51.448;7.028;2022-11-15T14:03:48;16.60;74.80
913;DHT22;443;51.448;7.028;2022-11-15T14:06:17;16.60;74.30
913;DHT22;443;51.448;7.028;2022-11-15T14:08:59;16.60;73.90
913;DHT22;443;51.448;7.028;2022-11-15T14:11:27;16.60;75.20
913;DHT22;443;51.448;7.028;2022-11-15T14:14:08;16.60;76.30
913;DHT22;443;51.448;7.028;2022-11-15T14:16:40;16.50;75.30
913;DHT22;443;51.448;7.028;2022-11-15T14:19:11;16.60;75.10
913;DHT22;443;51.448;7.028;2022-11-15T14:22:08;16.60;75.50
913;DHT22;443;51.448;7.028;2022-11-15T14:24:36;16.60;74.80
913;DHT22;443;51.448;7.028;2022-11-15T14:27:19;16.60;75.40
913;DHT22;443;51.448;7.028;2022-11-15T14:29:46;16.50;75.40
913;DHT22;443;51.448;7.028;2022-11-15T14:32:15;16.50;75.50
913;DHT22;443;51.448;7.028;2022-11-15T14:34:43;16.50;75.60
913;DHT22;443;51.448;7.028;2022-11-15T14:37:20;16.60;75.60
913;DHT22;443;51.448;7.028;2022-11-15T14:39:48;16.60;75.60
913;DHT22;443;51.448;7.028;2022-11-15T14:42:15;16.60;74.70
913;DHT22;443;51.448;7.028;2022-11-15T14:44:42;16.60;75.50
913;DHT22;443;51.448;7.028;2022-11-15T14:47:09;16.60;76.30
913;DHT22;443;51.448;7.028;2022-11-15T14:49:36;16.50;75.20
913;DHT22;443;51.448;7.028;2022-11-15T14:52:11;16.50;75.20
913;DHT22;443;51.448;7.028;2022-11-15T14:54:45;16.50;75.50
913;DHT22;443;51.448;7.028;2022-11-15T14:57:11;16.50;75.60
913;DHT22;443;51.448;7.028;2022-11-15T14:59:38;16.50;75.80
913;DHT22;443;51.448;7.028;2022-11-15T15:02:11;16.50;75.80
913;DHT22;443;51.448;7.028;2022-11-15T15:04:41;16.50;75.80
913;DHT22;443;51.448;7.028;2022-11-15T15:07:08;16.50;75.80
913;DHT22;443;51.448;7.028;2022-11-15T15:09:35;16.50;75.80
913;DHT22;443;51.448;7.028;2022-11-15T15:12:03;16.50;75.90
913;DHT22;443;51.448;7.028;2022-11-15T15:14:30;16.50;75.50
913;DHT22;443;51.448;7.028;2022-11-15T15:16:57;16.50;75.80
913;DHT22;443;51.448;7.028;2022-11-15T15:19:24;16.50;75.90
913;DHT22;443;51.448;7.028;2022-11-15T15:21:51;16.50;76.10
913;DHT22;443;51.448;7.028;2022-11-15T15:24:17;16.50;76.10
913;DHT22;443;51.448;7.028;2022-11-15T15:26:44;16.50;75.80
913;DHT22;443;51.448;7.028;2022-11-15T15:29:12;16.50;76.10
913;DHT22;443;51.448;7.028;2022-11-15T15:31:39;16.50;75.80
913;DHT22;443;51.448;7.028;2022-11-15T15:34:06;16.50;75.90
913;DHT22;443;51.448;7.028;2022-11-15T15:36:33;16.50;75.10
913;DHT22;443;51.448;7.028;2022-11-15T15:38:59;16.50;74.40
913;DHT22;443;51.448;7.028;2022-11-15T15:41:26;16.50;75.80
913;DHT22;443;51.448;7.028;2022-11-15T15:43:53;16.50;76.10
913;DHT22;443;51.448;7.028;2022-11-15T15:46:21;16.50;76.10
913;DHT22;443;51.448;7.028;2022-11-15T15:48:49;16.50;76.20
913;DHT22;443;51.448;7.028;2022-11-15T15:51:17;16.40;75.30
913;DHT22;443;51.448;7.028;2022-11-15T15:53:45;16.50;76.20
913;DHT22;443;51.448;7.028;2022-11-15T15:56:12;16.50;76.00
913;DHT22;443;51.448;7.028;2022-11-15T15:58:39;16.50;76.20
913;DHT22;443;51.448;7.028;2022-11-15T16:01:05;16.50;77.00
913;DHT22;443;51.448;7.028;2022-11-15T16:03:34;16.40;76.20
913;DHT22;443;51.448;7.028;2022-11-15T16:06:00;16.40;76.20
913;DHT22;443;51.448;7.028;2022-11-15T16:08:29;16.50;75.50
913;DHT22;443;51.448;7.028;2022-11-15T16:10:56;16.40;76.10
913;DHT22;443;51.448;7.028;2022-11-15T16:13:23;16.50;75.60
913;DHT22;443;51.448;7.028;2022-11-15T16:15:52;16.50;76.10
913;DHT22;443;51.448;7.028;2022-11-15T16:18:20;16.40;75.40
913;DHT22;443;51.448;7.028;2022-11-15T16:20:49;16.40;75.90
913;DHT22;443;51.448;7.028;2022-11-15T16:23:20;16.40;76.20
913;DHT22;443;51.448;7.028;2022-11-15T16:25:50;16.40;76.30
913;DHT22;443;51.448;7.028;2022-11-15T16:28:21;16.50;76.40
913;DHT22;443;51.448;7.028;2022-11-15T16:30:58;16.40;75.90
913;DHT22;443;51.448;7.028;2022-11-15T16:33:25;16.40;75.80
913;DHT22;443;51.448;7.028;2022-11-15T16:35:53;16.40;76.20
913;DHT22;443;51.448;7.028;2022-11-15T16:38:20;16.40;76.00
913;DHT22;443;51.448;7.028;2022-11-15T16:40:47;16.40;76.20
913;DHT22;443;51.448;7.028;2022-11-15T16:43:14;16.40;76.20
913;DHT22;443;51.448;7.028;2022-11-15T16:45:41;16.40;76.30
913;DHT22;443;51.448;7.028;2022-11-15T16:48:20;16.40;76.40
913;DHT22;443;51.448;7.028;2022-11-15T16:50:47;16.40;76.40
913;DHT22;443;51.448;7.028;2022-11-15T16:53:15;16.40;76.30
913;DHT22;443;51.448;7.028;2022-11-15T16:55:42;16.40;76.10
913;DHT22;443;51.448;7.028;2022-11-15T16:58:09;16.40;76.10
913;DHT22;443;51.448;7.028;2022-11-15T17:00:36;16.40;76.30
913;DHT22;443;51.448;7.028;2022-11-15T17:03:03;16.40;75.70
913;DHT22;443;51.448;7.028;2022-11-15T17:05:30;16.40;75.50